Leighton, IA (50143)

12:32 PM CDT on September 21, 2014 (GMT -0500)
BankerWeather | Change Station
CLOSE
Current Station
Personal Weather Station
Location: Pella, IA
Elevation: 850 ft
Nearby Weather Stations

Elev 850 ft 41.42 °N, 92.92 °W | Updated 13 minutes ago

Clear
Clear
66.4 °F
Feels Like 66.4 °F
N
6.8
Wind Variable Wind from NW

Today
High -- | Low -- °F
--% Chance of Precip.
Yesterday
High -- | Low -- °F
Precip. -- in
6:57 AM 7:10 PM
Waning Crescent, 6% visible
Pressure 30.13 in
Visibility 10.0 miles
Clouds Clear
Dew Point 52 °F
Humidity 59%
Rainfall 0.00 in
Snow Depth Not available.
UV 7 out of 12
Pollen 5.30 out of 12
Air Quality Not available.
Flu Activity Not available.
METAR KPEA 211715Z AUTO 33018G22KT 10SM CLR 20/10 A3013 RMK AO2 T02000097

More Conditions Fewer Conditions

Pressure 30.13 in
Visibility 10.0 miles
Clouds Clear
Dew Point 52 °F
Humidity 59%
Rainfall 0.00 in
Snow Depth Not available.
UV 7 out of 12
Pollen 5.30 out of 12
Air Quality Not available.
Flu Activity Not available.
METAR KPEA 211715Z AUTO 33018G22KT 10SM CLR 20/10 A3013 RMK AO2 T02000097

More Conditions Fewer Conditions

10-Day Weather Forecast

Almanac

Astronomy

Sep. 21, 2014 Rise Set
Actual Time 6:57 AM CDT 7:10 PM CDT
Civil Twilight 6:30 AM CDT 7:37 PM CDT
Nautical Twilight 5:57 AM CDT 8:10 PM CDT
Astronomical Twilight 5:24 AM CDT 8:43 PM CDT
Moon 4:30 AM CDT 5:47 PM CDT
Length of Visible Light 13h 07m
Length of Day
12h 12m
Tomorrow will be 2m 44s shorter.
Waning Crescent, 6% of the Moon is Illuminated
Today
Waning Crescent
Sep 24
New
Oct 1
First Quarter
Oct 8
Full
Oct 15
Last Quarter

Today's Extremes

State Highs State Lows

Community

WunderPhotos

Upload Photos

1,755,199 photos uploaded!

WunderBlogs® & News

Nearby

Snow Depth

Station Depth Elevation
No new snow has been reported.

Earthquake Activity

City Distance Mag. Time & Date
No recent earthquake activity has been reported nearby.
Minimum magnitude displayed is 2.5.

Coastal Water Temperatures

Place Temperature
No Stations Reporting

Nearby Weather Stations